עמוד ראשי
METAR-TAF:

METAR-TAF

שדות תעופה :

Orlando Executive Airport

אורלנדו, פלורידה, ארצות הברית

קו רוחב: 28-32-47N, קו אורך: 081-20-09W, גובה: 34מטר

תצפית מזג אוויר נוכחית

הדו"ח נערך לפני 54דקות, בשעה 18:53 UTC
רוח 15קשר מכיוון מזרח עם משבים עד 24קשר
טמפרטורת 30 צלסיוס
לחות 62%
לחץ 1017 hPa
ראות: 16.1קילומטר
מעט עננים בגובה 3900רגל
עננים פזורים בגובה 4700רגל
עננים בינוניים בגובה 8500רגל

METAR: KORL 171853Z 08015G24KT 10SM FEW039 SCT047 BKN085 30/22 A3004 RMK AO2 RAE28 SLP173 P0000 T03000222

זמן: 15:47 (19:47 UTC)


TAF: חסר

תצפיות ותחזיות מזג אוויר לגבי יותר מ- 4,000 שדות תעופה ברחבי העולם. דוחות METAR ו- TAF.

התחנות הזמינות מסומנות בנקודות צהובות ואדומות על גבי המפה.

העבר את העכבר לנקודה הצבעונית על מנת לראות את שם התחנה.

לאחר מכן, לחץ כדי לראות את תוכן ואת תחזיות מזג האוויר.

כדי לשנות את המפה: לחץ על הכפתורים הירוקים עם הפלוס השחור כדי להתקרב; על הכפתור הירוק עם המקף כדי להתרחק; או בחיצים הירוקים למפות סמוכות.


METAR-TAF: